Flight Track Log - Related Links

Times and Time Zones

All times are in EDT time to prevent confusion due to time zone crossing. See the N405DD flight status page for this flight to view local times or setup timezone preferences in your user account.

Time Position Orientation Groundspeed Altitude Reporting Facility
EDT Latitude Longitude Course Direction KTS MPH feet Rate Location/Type
Wed 03:09:11 PM 47.5347 -95.0694 287° West 149 171 4,600  Level Minneapolis Center
Wed 03:10:13 PM 47.5483 -95.1256 290° West 146 168 5,800 1,024 Climbing Minneapolis Center
Wed 03:11:14 PM 47.5603 -95.1883 286° West 153 176 6,700 1,122 Climbing Minneapolis Center
Wed 03:12:16 PM 47.5742 -95.2503 288° West 157 181 8,100 1,161 Climbing Minneapolis Center
Wed 03:13:18 PM 47.5867 -95.3122 287° West 158 182 9,100 1,210 Climbing Minneapolis Center
Wed 03:14:00 PM 47.6031 -95.3822 287° West  Level FlightAware Approximate
Wed 03:14:20 PM 47.6036 -95.3928 287° West 167 192 10,600  Level Minneapolis Center
Wed 03:15:21 PM 47.6175 -95.4606 287° West 171 197 11,800 683 Climbing Minneapolis Center
Wed 03:16:23 PM 47.6314 -95.5342 286° West 179 206 12,000 97 Climbing Minneapolis Center
Wed 03:17:25 PM 47.6483 -95.6208 286° West 209 241 12,000 -48 Level Minneapolis Center
Wed 03:18:27 PM 47.6656 -95.7069 287° West 218 251 11,900 -49 Descending Minneapolis Center
Wed 03:19:28 PM 47.6831 -95.7942 287° West 220 253 11,900  Level Minneapolis Center
Wed 03:20:30 PM 47.7003 -95.8808 286° West 220 253 11,900 -339 Level Minneapolis Center
Wed 03:21:32 PM 47.7181 -95.9708 286° West 226 260 11,200 -597 Descending Minneapolis Center
Wed 03:27:12 PM 47.8200 -96.4940 286° West 207 238 7,900 -535 Descending FlightAware ADS-B
Wed 03:27:42 PM 47.8280 -96.5350 286° West 206 237 7,900  Level FlightAware ADS-B
Wed 03:28:07 PM 47.8340 -96.5650 287° West 206 237 7,900  Level FlightAware ADS-B
Wed 03:28:32 PM 47.8400 -96.5980 285° West 206 237 7,900 -600 Level FlightAware ADS-B
Wed 03:29:07 PM 47.8510 -96.6540 286° West 224 258 7,300 -800 Descending FlightAware ADS-B
Wed 03:29:32 PM 47.8560 -96.6920 281° West 228 262 7,100 -655 Descending FlightAware ADS-B
Wed 03:30:02 PM 47.8610 -96.7390 279° West 228 262 6,700 -764 Descending FlightAware ADS-B
Wed 03:30:27 PM 47.8650 -96.7780 279° West 232 267 6,400 -873 Descending FlightAware ADS-B
Wed 03:30:57 PM 47.8640 -96.8240 268° West 230 265 5,900 -1,000 Descending FlightAware ADS-B
Wed 03:31:27 PM 47.8620 -96.8720 266° West 228 262 5,400 -1,091 Descending FlightAware ADS-B
Wed 03:31:52 PM 47.8610 -96.9140 268° West 227 261 4,900 -1,050 Descending FlightAware ADS-B
Wed 03:32:07 PM 47.8600 -96.9350 266° West 227 261 4,700 -1,800 Descending FlightAware ADS-B
Wed 03:32:32 PM 47.8580 -96.9750 266° West 226 260 3,700 -2,250 Descending FlightAware ADS-B
Wed 03:32:47 PM 47.8570 -96.9960 266° West 222 255 3,200 -1,067 Descending FlightAware ADS-B
Wed 03:33:17 PM 47.8540 -97.0410 264° West 205 236 2,900 -327 Descending FlightAware ADS-B
Wed 03:33:42 PM 47.8510 -97.0770 263° West 198 228 2,900  Level FlightAware ADS-B
Wed 03:34:12 PM 47.8510 -97.1150 270° West 196 226 2,900  Level FlightAware ADS-B
Wed 03:34:42 PM 47.8510 -97.1580 270° West 198 228 2,900 -150 Level FlightAware ADS-B
Wed 03:34:52 PM 47.8530 -97.1720 282° West 195 224 2,800 -480 Descending FlightAware ADS-B
Wed 03:35:07 PM 47.8620 -97.1820 323° Northwest 181 208 2,700 -480 Descending FlightAware ADS-B
Wed 03:35:17 PM 47.8710 -97.1820 360° North 180 207 2,600 -1,400 Descending FlightAware ADS-B
Wed 03:35:37 PM 47.8880 -97.1810 North 176 203 2,000 -1,600 Descending FlightAware ADS-B
Wed 03:35:47 PM 47.8940 -97.1810 360° North 165 190 1,800 -1,029 Descending FlightAware ADS-B
Wed 03:36:12 PM 47.9110 -97.1810 360° North 137 158 1,400 -840 Descending FlightAware ADS-B
Wed 03:36:37 PM 47.9240 -97.1810 360° North 102 117 1,100 -545 Descending FlightAware ADS-B
Wed 03:37:07 PM 47.9360 -97.1810 360° North 81 93 900 -218 Descending FlightAware ADS-B
Wed 03:37:32 PM 47.9460 -97.1800 North 81 93 900  Level FlightAware ADS-B

Login

Don't have an account? Register now (free) for customized features, flight alerts, and more!